createdAt,value
2022-10-01T00:02:11.632Z,75.28
2022-10-01T00:04:40.629Z,75.24
2022-10-01T00:07:10.874Z,75.27
2022-10-01T00:09:39.811Z,75.39
2022-10-01T00:12:08.728Z,75.55
2022-10-01T00:14:38.452Z,75.61
2022-10-01T00:17:07.624Z,75.76
2022-10-01T00:19:34.253Z,75.69
2022-10-01T00:22:00.762Z,76.05
2022-10-01T00:24:27.886Z,75.96
2022-10-01T00:26:54.399Z,76.19
2022-10-01T00:29:20.906Z,76.22
2022-10-01T00:31:47.748Z,76.42
2022-10-01T00:34:15.475Z,76.89
2022-10-01T00:36:42.301Z,76.66
2022-10-01T00:39:10.880Z,76.58
2022-10-01T00:41:39.563Z,76.77
2022-10-01T00:44:28.051Z,76.69
2022-10-01T00:46:57.566Z,76.67
2022-10-01T00:49:29.190Z,77.15
2022-10-01T00:51:59.313Z,77.18
2022-10-01T00:54:33.975Z,77.32
2022-10-01T00:57:05.358Z,76.84
2022-10-01T00:59:34.711Z,77.34
2022-10-01T01:02:01.284Z,77.31
2022-10-01T01:04:27.997Z,77.53
2022-10-01T01:07:01.323Z,77.87
2022-10-01T01:09:37.030Z,78.12
2022-10-01T01:12:06.277Z,78.14
2022-10-01T01:15:11.594Z,78.11
2022-10-01T01:17:52.489Z,78.51
2022-10-01T01:20:18.920Z,78.53
2022-10-01T01:22:55.904Z,78.66
2022-10-01T01:25:34.155Z,78.50
2022-10-01T01:28:24.333Z,78.88
2022-10-01T01:31:00.548Z,78.88
2022-10-01T01:33:31.038Z,79.06
2022-10-01T01:36:06.196Z,79.28
2022-10-01T01:38:54.922Z,78.99
2022-10-01T01:41:25.600Z,79.39
2022-10-01T01:43:59.809Z,79.56
2022-10-01T01:46:32.048Z,79.61
2022-10-01T01:49:01.031Z,79.57
2022-10-01T01:51:51.128Z,79.73
2022-10-01T01:54:19.672Z,80.19
2022-10-01T01:56:46.593Z,80.20
2022-10-01T01:59:16.391Z,80.21
2022-10-01T02:01:46.602Z,80.68
2022-10-01T02:04:21.482Z,81.13
2022-10-01T02:06:54.190Z,81.21
2022-10-01T02:09:31.100Z,81.05
2022-10-01T02:12:16.008Z,80.59
2022-10-01T02:14:59.336Z,80.65
2022-10-01T02:17:35.282Z,80.74
2022-10-01T02:20:08.619Z,81.08
2022-10-01T02:22:47.174Z,81.17
2022-10-01T02:25:17.464Z,80.94
2022-10-01T02:27:51.527Z,81.32
2022-10-01T02:30:18.681Z,81.19
2022-10-01T02:32:49.892Z,81.59
2022-10-01T02:35:19.691Z,81.74
2022-10-01T02:37:51.851Z,81.64
2022-10-01T02:40:26.287Z,81.92
2022-10-01T02:43:02.687Z,81.88
2022-10-01T02:45:35.575Z,82.40
2022-10-01T02:48:08.841Z,82.48
2022-10-01T02:50:44.212Z,82.39
2022-10-01T02:53:17.510Z,82.49
2022-10-01T02:55:46.534Z,82.57
2022-10-01T02:58:13.116Z,82.46
2022-10-01T03:00:39.656Z,82.75
2022-10-01T03:03:06.212Z,82.68
2022-10-01T03:05:32.817Z,82.79
2022-10-01T03:07:59.290Z,82.89
2022-10-01T03:10:25.850Z,83.15
2022-10-01T03:12:52.416Z,83.43
2022-10-01T03:15:20.052Z,83.46
2022-10-01T03:17:50.914Z,83.52
2022-10-01T03:20:17.596Z,83.57
2022-10-01T03:22:50.079Z,83.60
2022-10-01T03:25:17.256Z,83.71
2022-10-01T03:27:43.987Z,83.86
2022-10-01T03:30:14.896Z,83.80
2022-10-01T03:32:41.463Z,83.94
2022-10-01T03:35:13.768Z,83.90
2022-10-01T03:37:40.255Z,83.89
2022-10-01T03:40:09.308Z,84.11
2022-10-01T03:42:35.802Z,84.19
2022-10-01T03:45:02.314Z,84.12
2022-10-01T03:47:28.786Z,84.21
2022-10-01T03:49:55.311Z,84.38
2022-10-01T03:52:21.851Z,84.40
2022-10-01T03:54:48.343Z,84.58
2022-10-01T03:57:14.913Z,84.65
2022-10-01T03:59:42.561Z,84.66
2022-10-01T04:02:09.159Z,84.64
2022-10-01T04:04:37.716Z,84.83
2022-10-01T04:07:04.270Z,84.96
2022-10-01T04:09:30.775Z,84.88
2022-10-01T04:11:57.381Z,85.18
2022-10-01T04:14:23.935Z,85.12
2022-10-01T04:16:52.502Z,85.34
2022-10-01T04:19:21.713Z,85.25
2022-10-01T04:21:53.099Z,85.27
2022-10-01T04:24:19.574Z,85.27
2022-10-01T04:26:46.075Z,85.14
2022-10-01T04:29:14.903Z,85.33
2022-10-01T04:31:41.474Z,85.40
2022-10-01T04:34:08.199Z,85.44
2022-10-01T04:36:34.698Z,85.48
2022-10-01T04:39:03.794Z,85.74
2022-10-01T04:41:31.990Z,85.79
2022-10-01T04:44:00.245Z,85.76
2022-10-01T04:46:30.203Z,85.92
2022-10-01T04:48:57.037Z,85.96
2022-10-01T04:51:25.839Z,86.14
2022-10-01T04:53:55.567Z,86.29
2022-10-01T04:56:22.291Z,86.32
2022-10-01T04:58:49.193Z,86.24
2022-10-01T05:01:15.779Z,86.36
2022-10-01T05:03:42.365Z,86.55
2022-10-01T05:06:11.246Z,86.37
2022-10-01T05:08:38.294Z,86.53
2022-10-01T05:11:05.088Z,86.54
2022-10-01T05:13:32.063Z,86.94
2022-10-01T05:15:58.931Z,87.06
2022-10-01T05:18:25.465Z,87.01
2022-10-01T05:20:51.983Z,87.06
2022-10-01T05:23:21.172Z,87.05
2022-10-01T05:25:47.672Z,87.07
2022-10-01T05:28:22.154Z,87.27
2022-10-01T05:30:51.739Z,87.28
2022-10-01T05:33:18.277Z,87.39
2022-10-01T05:35:45.014Z,87.33
2022-10-01T05:38:11.549Z,87.51
2022-10-01T05:40:38.026Z,87.60
2022-10-01T05:43:04.559Z,87.67
2022-10-01T05:45:32.466Z,87.82
2022-10-01T05:48:00.713Z,87.94
2022-10-01T05:50:31.357Z,87.91
2022-10-01T05:53:00.403Z,87.92
2022-10-01T05:55:34.500Z,88.01
2022-10-01T05:58:05.801Z,88.31
2022-10-01T06:00:33.707Z,88.50
2022-10-01T06:03:02.312Z,88.54
2022-10-01T06:05:30.656Z,88.37
2022-10-01T06:08:00.767Z,88.55
2022-10-01T06:10:30.643Z,88.47
2022-10-01T06:13:05.380Z,88.45
2022-10-01T06:15:37.966Z,88.55
2022-10-01T06:18:06.206Z,88.44
2022-10-01T06:20:32.906Z,88.50
2022-10-01T06:23:02.077Z,88.71
2022-10-01T06:25:31.240Z,88.89
2022-10-01T06:27:59.624Z,88.58
2022-10-01T06:30:28.941Z,88.62
2022-10-01T06:33:06.753Z,88.42
2022-10-01T06:35:37.034Z,88.41
2022-10-01T06:38:06.934Z,88.64
2022-10-01T06:40:33.454Z,88.57
2022-10-01T06:42:59.994Z,88.68
2022-10-01T06:45:27.637Z,88.81
2022-10-01T06:47:59.662Z,88.25
2022-10-01T06:50:26.370Z,88.02
2022-10-01T06:52:55.910Z,88.19
2022-10-01T06:55:29.074Z,88.20
2022-10-01T06:57:58.467Z,88.52
2022-10-01T07:00:26.374Z,88.62
2022-10-01T07:02:55.811Z,88.60
2022-10-01T07:05:24.444Z,88.40
2022-10-01T07:07:54.017Z,88.36
2022-10-01T07:10:24.553Z,87.47
2022-10-01T07:12:51.468Z,87.36
2022-10-01T07:15:22.675Z,87.02
2022-10-01T07:17:50.615Z,86.75
2022-10-01T07:20:22.208Z,86.88
2022-10-01T07:22:58.090Z,85.05
2022-10-01T07:25:25.597Z,84.50
2022-10-01T07:28:04.359Z,83.39
2022-10-01T07:30:34.461Z,83.63
2022-10-01T07:33:02.183Z,84.53
2022-10-01T07:35:29.697Z,85.28
2022-10-01T07:37:56.247Z,86.07
2022-10-01T07:40:22.849Z,86.37
2022-10-01T07:42:54.656Z,86.75
2022-10-01T07:45:22.800Z,87.34
2022-10-01T07:47:57.259Z,87.46
2022-10-01T07:50:25.377Z,87.84
2022-10-01T07:52:56.282Z,87.77
2022-10-01T07:55:26.541Z,88.00
2022-10-01T07:57:58.205Z,88.18
2022-10-01T08:00:26.668Z,88.27
2022-10-01T08:02:56.015Z,88.34
2022-10-01T08:05:25.514Z,88.58
2022-10-01T08:07:52.390Z,88.50
2022-10-01T08:10:20.334Z,88.31
2022-10-01T08:12:47.169Z,88.28
2022-10-01T08:15:16.799Z,88.58
2022-10-01T08:17:43.936Z,88.63
2022-10-01T08:20:16.214Z,88.85
2022-10-01T08:22:42.924Z,88.98
2022-10-01T08:25:09.975Z,89.14
2022-10-01T08:27:37.073Z,89.35
2022-10-01T08:30:04.650Z,89.47
2022-10-01T08:32:33.431Z,89.53
2022-10-01T08:35:01.345Z,89.62
2022-10-01T08:37:29.219Z,89.40
2022-10-01T08:39:56.568Z,88.94
2022-10-01T08:42:28.450Z,88.89
2022-10-01T08:44:55.234Z,89.10
2022-10-01T08:47:31.031Z,88.59
2022-10-01T08:50:14.462Z,86.92
2022-10-01T08:52:52.217Z,78.55
2022-10-01T08:55:24.519Z,74.87
2022-10-01T08:58:00.438Z,73.06
2022-10-01T09:00:29.341Z,71.67
2022-10-01T09:03:00.460Z,70.58
2022-10-01T09:05:35.226Z,71.22
2022-10-01T09:08:15.403Z,72.17
2022-10-01T09:10:47.566Z,73.46
2022-10-01T09:13:33.357Z,73.57
2022-10-01T09:16:38.738Z,74.72
2022-10-01T09:19:31.840Z,76.61
2022-10-01T09:22:36.032Z,76.34
2022-10-01T09:25:21.313Z,75.84
2022-10-01T09:27:48.520Z,76.15
2022-10-01T09:30:24.839Z,77.61
2022-10-01T09:33:16.139Z,77.55
2022-10-01T09:35:54.768Z,77.04
2022-10-01T09:38:25.587Z,76.03
2022-10-01T09:40:56.779Z,75.64
2022-10-01T09:43:34.644Z,75.63
2022-10-01T09:46:15.388Z,75.92
2022-10-01T09:49:05.013Z,76.41
2022-10-01T09:51:45.000Z,75.99
2022-10-01T09:54:39.034Z,75.74
2022-10-01T09:57:24.234Z,76.30
2022-10-01T10:00:01.649Z,76.37
2022-10-01T10:02:35.312Z,76.77
2022-10-01T10:05:06.455Z,76.31
2022-10-01T10:07:35.042Z,75.85
2022-10-01T10:10:35.655Z,76.31
2022-10-01T10:13:35.171Z,76.50
2022-10-01T10:16:26.918Z,76.34
2022-10-01T10:19:02.240Z,75.96
2022-10-01T10:21:31.897Z,75.87
2022-10-01T10:24:00.898Z,74.59
2022-10-01T10:26:34.001Z,72.79
2022-10-01T10:29:02.976Z,71.68
2022-10-01T10:31:39.775Z,71.16
2022-10-01T10:34:17.735Z,70.06
2022-10-01T10:36:45.971Z,70.62
2022-10-01T10:39:34.856Z,72.08
2022-10-01T10:42:04.091Z,73.02
2022-10-01T10:44:36.283Z,74.16
2022-10-01T10:47:11.711Z,74.49
2022-10-01T10:49:47.259Z,74.67
2022-10-01T10:52:33.434Z,73.97
2022-10-01T10:55:02.461Z,73.73
2022-10-01T10:57:34.025Z,73.42
2022-10-01T11:00:06.841Z,73.76
2022-10-01T11:02:33.851Z,73.65
2022-10-01T11:05:12.047Z,73.56
2022-10-01T11:07:43.244Z,73.51
2022-10-01T11:10:46.199Z,73.82
2022-10-01T11:13:49.634Z,73.33
2022-10-01T11:16:29.580Z,72.29
2022-10-01T11:19:11.362Z,71.30
2022-10-01T11:22:04.164Z,71.26
2022-10-01T11:24:57.120Z,70.97
2022-10-01T11:27:38.898Z,70.84
2022-10-01T11:30:35.536Z,70.32
2022-10-01T11:33:19.564Z,69.95
2022-10-01T11:36:22.265Z,69.66
2022-10-01T11:39:13.551Z,68.84
2022-10-01T11:41:45.329Z,67.96
2022-10-01T11:44:30.809Z,67.48
2022-10-01T11:47:10.232Z,67.37
2022-10-01T11:49:52.060Z,69.10
2022-10-01T11:52:37.637Z,70.14
2022-10-01T11:55:34.684Z,70.48
2022-10-01T11:58:54.928Z,70.25
2022-10-01T12:01:24.991Z,70.45
2022-10-01T12:03:54.390Z,70.50
2022-10-01T12:06:28.418Z,70.29
2022-10-01T12:09:07.890Z,70.45
2022-10-01T12:11:52.836Z,69.55
2022-10-01T12:15:06.934Z,69.69
2022-10-01T12:17:46.680Z,69.36
2022-10-01T12:20:25.564Z,69.87
2022-10-01T12:22:56.335Z,70.16
2022-10-01T12:25:31.212Z,70.31
2022-10-01T12:28:01.790Z,70.46
2022-10-01T12:30:38.666Z,70.76
2022-10-01T12:33:34.130Z,70.53
2022-10-01T12:36:32.567Z,70.60
2022-10-01T12:39:34.281Z,70.31
2022-10-01T12:42:04.164Z,68.83
2022-10-01T12:45:20.398Z,68.68
2022-10-01T12:48:07.773Z,67.96
2022-10-01T12:51:02.885Z,68.10
2022-10-01T12:53:38.768Z,67.29
2022-10-01T12:56:21.666Z,67.01
2022-10-01T12:59:11.965Z,67.20
2022-10-01T13:01:57.509Z,66.72
2022-10-01T13:04:40.439Z,66.59
2022-10-01T13:07:29.375Z,66.91
2022-10-01T13:10:05.061Z,65.92
2022-10-01T13:12:43.709Z,65.65
2022-10-01T13:15:40.879Z,65.98
2022-10-01T13:18:52.185Z,65.61
2022-10-01T13:21:37.136Z,65.22
2022-10-01T13:24:19.941Z,65.02
2022-10-01T13:27:05.693Z,64.70
2022-10-01T13:30:12.218Z,65.03
2022-10-01T13:32:55.594Z,64.25
2022-10-01T13:35:34.474Z,63.76
2022-10-01T13:38:14.549Z,63.38
2022-10-01T13:40:44.240Z,63.32
2022-10-01T13:43:23.386Z,63.45
2022-10-01T13:45:52.335Z,63.54
2022-10-01T13:48:35.282Z,63.49
2022-10-01T13:51:13.341Z,63.19
2022-10-01T13:53:42.839Z,63.84
2022-10-01T13:56:13.126Z,63.83
2022-10-01T13:58:50.280Z,63.97
2022-10-01T14:01:21.355Z,63.87
2022-10-01T14:04:17.518Z,64.15
2022-10-01T14:06:51.310Z,63.60
2022-10-01T14:09:36.550Z,64.10
2022-10-01T14:12:30.793Z,64.24
2022-10-01T14:15:18.653Z,63.87
2022-10-01T14:17:55.752Z,64.12
2022-10-01T14:20:28.975Z,63.60
2022-10-01T14:23:21.595Z,63.48
2022-10-01T14:25:59.315Z,63.32
2022-10-01T14:28:39.549Z,62.98
2022-10-01T14:31:17.453Z,63.17
2022-10-01T14:34:06.741Z,63.31
2022-10-01T14:36:41.995Z,63.23
2022-10-01T14:39:30.241Z,63.48
2022-10-01T14:41:57.992Z,63.49
2022-10-01T14:44:30.331Z,63.51
2022-10-01T14:47:01.146Z,63.61
2022-10-01T14:49:32.587Z,63.66
2022-10-01T14:52:28.599Z,63.73
2022-10-01T14:55:09.232Z,63.97
2022-10-01T14:57:41.927Z,63.84
2022-10-01T15:00:26.821Z,63.75
2022-10-01T15:03:15.151Z,63.74
2022-10-01T15:05:43.170Z,63.87
2022-10-01T15:08:21.186Z,63.92
2022-10-01T15:11:00.725Z,64.14
2022-10-01T15:13:29.796Z,64.31
2022-10-01T15:15:59.122Z,64.28
2022-10-01T15:18:26.619Z,64.41
2022-10-01T15:20:59.703Z,64.14
2022-10-01T15:23:28.873Z,63.99
2022-10-01T15:25:58.644Z,63.96
2022-10-01T15:28:36.877Z,63.95
2022-10-01T15:31:06.434Z,64.37
2022-10-01T15:33:36.185Z,64.64
2022-10-01T15:36:05.897Z,64.58
2022-10-01T15:38:33.644Z,64.34
2022-10-01T15:41:26.661Z,64.51
2022-10-01T15:43:52.320Z,64.38
2022-10-01T15:46:31.321Z,64.62
2022-10-01T15:49:14.773Z,64.88
2022-10-01T15:52:14.172Z,64.97
2022-10-01T15:54:44.772Z,65.07
2022-10-01T15:57:23.831Z,65.07
2022-10-01T15:59:53.439Z,65.19
2022-10-01T16:02:25.202Z,65.21
2022-10-01T16:04:56.687Z,65.52
2022-10-01T16:07:29.716Z,65.53
2022-10-01T16:09:58.366Z,65.85
2022-10-01T16:12:27.539Z,65.82
2022-10-01T16:14:56.831Z,65.83
2022-10-01T16:17:30.255Z,65.84
2022-10-01T16:20:02.788Z,66.29
2022-10-01T16:22:33.797Z,66.34
2022-10-01T16:25:24.986Z,66.53
2022-10-01T16:27:58.386Z,66.81
2022-10-01T16:30:27.024Z,66.83
2022-10-01T16:32:54.329Z,67.40
2022-10-01T16:35:22.126Z,67.41
2022-10-01T16:37:53.270Z,67.43
2022-10-01T16:40:22.160Z,67.83
2022-10-01T16:42:52.294Z,67.76
2022-10-01T16:45:22.702Z,67.91
2022-10-01T16:47:49.243Z,68.07
2022-10-01T16:50:18.643Z,68.51
2022-10-01T16:52:48.578Z,68.68
2022-10-01T16:55:23.040Z,69.16
2022-10-01T16:57:50.946Z,69.01
2022-10-01T17:00:20.192Z,69.49
2022-10-01T17:02:46.977Z,69.63
2022-10-01T17:05:22.697Z,69.87
2022-10-01T17:07:49.667Z,70.10
2022-10-01T17:10:17.971Z,70.16
2022-10-01T17:12:52.522Z,70.28
2022-10-01T17:15:23.261Z,70.07
2022-10-01T17:17:53.898Z,70.27
2022-10-01T17:20:22.108Z,70.36
2022-10-01T17:22:51.770Z,70.28
2022-10-01T17:25:23.794Z,70.57
2022-10-01T17:27:50.506Z,70.71
2022-10-01T17:30:19.527Z,70.98
2022-10-01T17:32:46.752Z,71.22
2022-10-01T17:35:15.061Z,71.09
2022-10-01T17:37:42.533Z,71.43
2022-10-01T17:40:13.666Z,71.75
2022-10-01T17:42:44.938Z,71.57
2022-10-01T17:45:13.817Z,71.90
2022-10-01T17:47:45.230Z,71.47
2022-10-01T17:50:12.602Z,71.60
2022-10-01T17:52:39.236Z,71.66
2022-10-01T17:55:06.568Z,71.69
2022-10-01T17:57:33.770Z,71.97
2022-10-01T18:00:00.511Z,72.14
2022-10-01T18:02:41.569Z,71.95
2022-10-01T18:05:12.183Z,72.09
2022-10-01T18:07:39.120Z,72.58
2022-10-01T18:10:12.550Z,72.40
2022-10-01T18:12:39.442Z,72.58
2022-10-01T18:15:06.478Z,72.54
2022-10-01T18:17:33.482Z,72.65
2022-10-01T18:20:00.362Z,72.18
2022-10-01T18:22:28.261Z,72.14
2022-10-01T18:24:55.115Z,72.19
2022-10-01T18:27:21.749Z,71.97
2022-10-01T18:29:48.253Z,72.05
2022-10-01T18:32:24.109Z,71.98
2022-10-01T18:35:06.302Z,71.86
2022-10-01T18:37:46.631Z,72.54
2022-10-01T18:40:13.028Z,72.58
2022-10-01T18:42:45.549Z,72.86
2022-10-01T18:45:40.628Z,72.95
2022-10-01T18:48:25.587Z,73.11
2022-10-01T18:51:10.273Z,72.79
2022-10-01T18:54:24.836Z,72.81
2022-10-01T18:57:13.164Z,73.10
2022-10-01T18:59:57.283Z,73.17
2022-10-01T19:02:45.836Z,73.60
2022-10-01T19:05:38.253Z,73.84
2022-10-01T19:08:24.601Z,73.92
2022-10-01T19:11:18.009Z,74.10
2022-10-01T19:14:18.714Z,74.19
2022-10-01T19:16:59.252Z,74.72
2022-10-01T19:19:52.310Z,74.76
2022-10-01T19:22:24.707Z,74.65
2022-10-01T19:24:57.936Z,74.88
2022-10-01T19:27:54.138Z,74.88
2022-10-01T19:30:20.811Z,74.83
2022-10-01T19:32:59.977Z,75.16
2022-10-01T19:35:31.892Z,75.08
2022-10-01T19:38:06.096Z,75.38
2022-10-01T19:40:51.391Z,75.58
2022-10-01T19:43:26.846Z,75.52
2022-10-01T19:46:17.454Z,75.84
2022-10-01T19:48:49.221Z,76.05
2022-10-01T19:51:24.146Z,76.18
2022-10-01T19:54:00.040Z,76.24
2022-10-01T19:56:35.030Z,76.13
2022-10-01T19:59:10.792Z,76.52
2022-10-01T20:01:53.094Z,76.63
2022-10-01T20:04:44.440Z,76.48
2022-10-01T20:07:17.029Z,76.88
2022-10-01T20:09:56.301Z,76.83
2022-10-01T20:12:36.139Z,77.12
2022-10-01T20:15:30.806Z,77.10
2022-10-01T20:18:28.606Z,77.17
2022-10-01T20:20:58.246Z,77.33
2022-10-01T20:23:55.882Z,77.43
2022-10-01T20:26:57.565Z,77.38
2022-10-01T20:30:14.071Z,77.31
2022-10-01T20:33:00.954Z,77.75
2022-10-01T20:35:34.101Z,77.91
2022-10-01T20:38:22.778Z,77.98
2022-10-01T20:41:00.114Z,78.10
2022-10-01T20:43:33.647Z,78.25
2022-10-01T20:46:09.137Z,78.64
2022-10-01T20:48:39.161Z,78.79
2022-10-01T20:51:14.637Z,78.99
2022-10-01T20:53:53.020Z,79.04
2022-10-01T20:56:42.864Z,79.01
2022-10-01T20:59:40.477Z,79.34
2022-10-01T21:02:32.865Z,79.13
2022-10-01T21:05:09.293Z,79.55
2022-10-01T21:07:51.293Z,79.61
2022-10-01T21:10:33.409Z,79.65
2022-10-01T21:13:11.759Z,79.87
2022-10-01T21:15:49.587Z,79.86
2022-10-01T21:18:22.416Z,80.07
2022-10-01T21:21:19.980Z,79.79
2022-10-01T21:24:01.287Z,80.28
2022-10-01T21:26:58.430Z,80.20
2022-10-01T21:29:54.989Z,80.11
2022-10-01T21:32:30.227Z,80.50
2022-10-01T21:35:15.470Z,80.58
2022-10-01T21:37:55.556Z,80.64
2022-10-01T21:40:47.554Z,80.65
2022-10-01T21:43:44.601Z,80.95
2022-10-01T21:46:37.656Z,80.63
2022-10-01T21:49:50.241Z,80.83
2022-10-01T21:52:47.700Z,81.15
2022-10-01T21:55:14.132Z,81.29
2022-10-01T21:57:48.321Z,81.55
2022-10-01T22:00:23.171Z,81.64
2022-10-01T22:02:52.411Z,81.86
2022-10-01T22:05:37.964Z,82.09
2022-10-01T22:08:40.475Z,81.99
2022-10-01T22:11:17.175Z,82.26
2022-10-01T22:13:54.908Z,82.28
2022-10-01T22:16:26.242Z,82.43
2022-10-01T22:18:57.164Z,82.77
2022-10-01T22:21:44.584Z,82.74
2022-10-01T22:24:16.159Z,82.98
2022-10-01T22:26:53.770Z,83.19
2022-10-01T22:29:29.355Z,83.25
2022-10-01T22:32:03.122Z,83.28
2022-10-01T22:34:37.634Z,83.38
2022-10-01T22:37:23.220Z,83.42
2022-10-01T22:39:58.321Z,83.40
2022-10-01T22:42:30.378Z,83.52
2022-10-01T22:45:03.933Z,83.65
2022-10-01T22:47:30.362Z,83.66
2022-10-01T22:50:15.735Z,83.80
2022-10-01T22:53:07.230Z,83.78
2022-10-01T22:55:54.693Z,83.87
2022-10-01T22:58:57.582Z,83.73
2022-10-01T23:01:39.742Z,83.73
2022-10-01T23:04:21.339Z,83.69
2022-10-01T23:07:11.227Z,83.71
2022-10-01T23:09:43.768Z,83.81
2022-10-01T23:12:31.669Z,83.89
2022-10-01T23:15:08.024Z,83.97
2022-10-01T23:17:43.790Z,84.20
2022-10-01T23:20:20.595Z,83.84
2022-10-01T23:23:01.215Z,83.43
2022-10-01T23:26:04.637Z,83.20
2022-10-01T23:28:39.188Z,83.08
2022-10-01T23:31:29.134Z,83.17
2022-10-01T23:34:20.228Z,83.39
2022-10-01T23:36:52.834Z,83.22
2022-10-01T23:39:37.550Z,83.63
2022-10-01T23:42:22.828Z,83.31
2022-10-01T23:45:14.273Z,83.81
2022-10-01T23:48:08.486Z,83.60
2022-10-01T23:50:44.254Z,83.77
2022-10-01T23:53:17.671Z,83.87
2022-10-01T23:56:27.894Z,83.95
2022-10-01T23:59:00.882Z,84.34
